Time;durP1;ratioP1;P1;durP2;ratioP2;P2;SDS_P1;SDS_P2;PMS_P1;PMS_P2;Temp;Humidity;BMP_temperature;BMP_pressure;BME280_temperature;BME280_humidity;BME280_pressure;Samples;Min_cycle;Max_cycle;Signal;HPM_P1;HPM_P2
2020/12/11 06:01:00;;;;;;;73.33;19.90;;;1.70;97.30;;;;;;5756448;23;21019;-70
2020/12/11 06:03:27;;;;;;;80.13;21.07;;;1.70;97.30;;;;;;4934041;29;20781;-71
2020/12/11 06:05:59;;;;;;;82.13;21.63;;;1.70;97.30;;;;;;4934619;29;20526;-71
2020/12/11 06:08:29;;;;;;;76.03;20.03;;;1.70;97.30;;;;;;4935166;29;20466;-71
2020/12/11 06:10:54;;;;;;;72.27;22.60;;;1.70;97.30;;;;;;4930747;29;20492;-70
2020/12/11 06:13:32;;;;;;;75.00;21.23;;;1.70;97.30;;;;;;4915719;29;20432;-70
2020/12/11 06:16:01;;;;;;;59.93;18.20;;;1.70;97.30;;;;;;4915914;29;20168;-70
2020/12/11 06:18:28;;;;;;;65.43;20.20;;;1.70;97.30;;;;;;4914762;29;20507;-70
2020/12/11 06:20:55;;;;;;;72.57;19.63;;;1.70;97.30;;;;;;4915533;29;20445;-70
2020/12/11 06:23:22;;;;;;;75.67;19.77;;;1.70;97.30;;;;;;4916899;29;20535;-70
2020/12/11 06:25:53;;;;;;;77.57;18.70;;;1.70;97.30;;;;;;4916751;29;20801;-71
2020/12/11 06:28:37;;;;;;;70.20;18.83;;;1.70;97.30;;;;;;4915006;29;20519;-70
2020/12/11 06:31:03;;;;;;;74.43;21.70;;;1.70;97.30;;;;;;4915129;29;20432;-70
2020/12/11 06:33:30;;;;;;;65.93;20.63;;;1.80;97.30;;;;;;4914006;29;20409;-71
2020/12/11 06:35:57;;;;;;;55.33;18.77;;;1.70;97.30;;;;;;4913706;29;20524;-71
2020/12/11 06:38:49;;;;;;;66.77;18.53;;;1.70;97.30;;;;;;4915808;29;20476;-70
2020/12/11 06:41:34;;;;;;;91.10;20.63;;;1.70;97.30;;;;;;4912753;29;20977;-71
2020/12/11 06:44:09;;;;;;;65.10;17.97;;;1.70;97.30;;;;;;4914727;29;20420;-70
2020/12/11 06:46:35;;;;;;;45.50;16.10;;;1.60;97.30;;;;;;4914147;29;20514;-70
2020/12/11 06:49:20;;;;;;;59.53;18.23;;;1.60;97.30;;;;;;4914799;29;20421;-71
2020/12/11 06:51:45;;;;;;;63.93;18.07;;;1.60;97.30;;;;;;4915879;29;20476;-71
2020/12/11 06:54:11;;;;;;;64.37;18.27;;;1.60;97.30;;;;;;4915728;29;20961;-71
2020/12/11 06:56:44;;;;;;;61.87;18.60;;;1.60;97.30;;;;;;4914641;29;20176;-71
2020/12/11 06:59:37;;;;;;;72.50;20.37;;;1.50;97.30;;;;;;4912301;29;20447;-72
2020/12/11 07:02:02;;;;;;;52.53;17.27;;;1.50;97.30;;;;;;4921506;29;20490;-71
2020/12/11 07:04:39;;;;;;;51.00;16.53;;;1.50;97.30;;;;;;4915242;29;20421;-70
2020/12/11 07:07:05;;;;;;;57.97;18.03;;;1.40;97.30;;;;;;4920365;29;20195;-71
2020/12/11 07:09:31;;;;;;;63.23;18.80;;;1.40;97.30;;;;;;4925839;29;20554;-70
2020/12/11 07:11:57;;;;;;;53.20;17.63;;;1.40;97.30;;;;;;4922294;29;20258;-70
2020/12/11 07:14:27;;;;;;;47.47;17.13;;;1.40;97.30;;;;;;4925041;29;20180;-70
2020/12/11 07:16:53;;;;;;;62.27;20.67;;;1.50;97.30;;;;;;4930269;29;20448;-70
2020/12/11 07:19:19;;;;;;;76.30;17.00;;;1.50;97.30;;;;;;4926627;29;20412;-69
2020/12/11 07:21:46;;;;;;;55.07;18.83;;;1.50;97.30;;;;;;4923257;29;20451;-70
2020/12/11 07:24:13;;;;;;;58.17;19.30;;;1.50;97.30;;;;;;4930055;29;20428;-70
2020/12/11 07:26:39;;;;;;;60.70;18.60;;;1.50;97.30;;;;;;4922677;29;20562;-69
2020/12/11 07:29:15;;;;;;;51.60;16.90;;;1.50;97.30;;;;;;4927543;29;20955;-70
2020/12/11 07:31:45;;;;;;;55.93;18.07;;;1.60;97.30;;;;;;4918768;29;20424;-70
2020/12/11 07:34:15;;;;;;;53.67;18.90;;;1.60;97.30;;;;;;4918114;29;20456;-69
2020/12/11 07:36:45;;;;;;;61.47;19.13;;;1.60;97.30;;;;;;4918653;29;20427;-71
2020/12/11 07:39:18;;;;;;;63.93;18.87;;;1.60;97.30;;;;;;4920093;29;20767;-69
2020/12/11 07:41:45;;;;;;;55.80;18.40;;;1.60;97.30;;;;;;4918540;29;20559;-69
2020/12/11 07:44:23;;;;;;;56.80;18.60;;;1.70;97.30;;;;;;4918394;29;20452;-69
2020/12/11 07:46:50;;;;;;;65.17;19.97;;;1.70;97.30;;;;;;4919135;29;20462;-70
2020/12/11 07:49:16;;;;;;;57.47;18.63;;;1.70;97.30;;;;;;4918124;29;20511;-70
2020/12/11 07:51:49;;;;;;;66.40;20.57;;;1.70;97.30;;;;;;4919237;29;20868;-70
2020/12/11 07:54:15;;;;;;;63.40;21.03;;;1.70;97.30;;;;;;4917924;29;20401;-70
2020/12/11 07:56:41;;;;;;;65.53;22.13;;;1.80;97.30;;;;;;4918056;29;20808;-70
2020/12/11 07:59:11;;;;;;;67.70;22.37;;;1.80;97.30;;;;;;4917922;29;20428;-70
2020/12/11 08:01:46;;;;;;;68.00;19.10;;;1.80;97.30;;;;;;4918872;29;20231;-69
2020/12/11 08:04:12;;;;;;;62.80;21.07;;;1.80;97.30;;;;;;4917747;29;20869;-69
2020/12/11 08:06:38;;;;;;;71.53;20.40;;;1.90;97.30;;;;;;4917667;29;20877;-70
2020/12/11 08:09:13;;;;;;;69.30;20.23;;;1.90;97.30;;;;;;4918893;29;20923;-70
2020/12/11 08:11:43;;;;;;;67.10;19.60;;;2.00;97.30;;;;;;4915089;29;20214;-70
2020/12/11 08:14:09;;;;;;;62.70;19.43;;;2.00;97.30;;;;;;4917665;29;20424;-71
2020/12/11 08:16:35;;;;;;;60.83;20.73;;;2.00;97.30;;;;;;4919162;29;20420;-70
2020/12/11 08:19:06;;;;;;;60.80;22.57;;;2.00;97.30;;;;;;4919174;29;20918;-70
2020/12/11 08:21:33;;;;;;;65.13;19.27;;;2.00;97.30;;;;;;4919077;29;20623;-69
2020/12/11 08:23:59;;;;;;;49.13;19.17;;;2.00;97.30;;;;;;4917121;29;20428;-70
2020/12/11 08:26:26;;;;;;;65.07;21.27;;;2.00;97.30;;;;;;4917094;29;20550;-69
2020/12/11 08:29:09;;;;;;;65.70;21.07;;;2.00;97.30;;;;;;4917525;29;20440;-69
2020/12/11 08:31:42;;;;;;;74.07;21.47;;;2.10;97.30;;;;;;4917313;29;20884;-69
2020/12/11 08:34:15;;;;;;;57.77;18.80;;;2.10;97.30;;;;;;4918714;29;20409;-69
2020/12/11 08:36:46;;;;;;;70.40;20.67;;;2.20;97.30;;;;;;4918582;29;20425;-70
2020/12/11 08:39:22;;;;;;;67.77;22.40;;;2.20;97.30;;;;;;4917631;29;20946;-70
2020/12/11 08:42:01;;;;;;;68.87;23.70;;;2.20;97.30;;;;;;4917741;29;20464;-70
2020/12/11 08:45:20;;;;;;;76.13;21.03;;;2.20;97.30;;;;;;4917097;29;20413;-70
2020/12/11 08:50:21;;;;;;;77.13;23.23;;;2.20;97.30;;;;;;4918562;29;20527;-69
2020/12/11 08:52:44;;;;;;;74.07;22.97;;;2.30;97.30;;;;;;4918324;29;20513;-70
2020/12/11 08:55:09;;;;;;;72.93;23.07;;;2.30;97.30;;;;;;4918221;29;20444;-70
2020/12/11 08:57:35;;;;;;;80.83;23.83;;;2.30;97.30;;;;;;4917287;29;20194;-69
2020/12/11 09:00:01;;;;;;;65.53;20.83;;;2.40;97.30;;;;;;4918448;29;20188;-69
2020/12/11 09:02:27;;;;;;;60.13;21.27;;;2.40;97.30;;;;;;4916881;29;20228;-69
2020/12/11 09:04:53;;;;;;;74.03;22.63;;;2.50;97.30;;;;;;4916914;29;20184;-69
2020/12/11 09:07:19;;;;;;;70.27;22.90;;;2.50;97.30;;;;;;4918197;29;20275;-69
2020/12/11 09:09:45;;;;;;;65.00;21.70;;;2.60;97.30;;;;;;4917063;29;20915;-69
2020/12/11 09:12:10;;;;;;;73.10;23.03;;;2.60;97.30;;;;;;4916876;29;20200;-70
2020/12/11 09:14:36;;;;;;;64.13;21.50;;;2.70;97.30;;;;;;4917905;29;20214;-70
2020/12/11 09:17:02;;;;;;;72.30;22.87;;;2.70;97.30;;;;;;4917933;29;20173;-70
2020/12/11 09:19:28;;;;;;;62.77;21.47;;;2.80;97.30;;;;;;4918068;29;20673;-70
2020/12/11 09:21:53;;;;;;;72.20;21.47;;;2.80;97.30;;;;;;4918132;29;20252;-69
2020/12/11 09:24:19;;;;;;;66.50;22.73;;;2.80;97.30;;;;;;4917768;29;20759;-70
2020/12/11 09:26:45;;;;;;;67.43;21.60;;;2.90;97.30;;;;;;4917850;29;20204;-70
2020/12/11 09:31:37;;;;;;;62.90;21.40;;;2.90;97.30;;;;;;4917817;29;20195;-69
2020/12/11 09:34:03;;;;;;;60.37;21.73;;;2.90;97.30;;;;;;4916311;29;20267;-70
2020/12/11 09:36:29;;;;;;;64.10;21.93;;;2.90;97.30;;;;;;4917326;29;20949;-69
2020/12/11 09:38:54;;;;;;;66.77;21.20;;;3.00;97.30;;;;;;4917639;29;20744;-69
2020/12/11 09:41:33;;;;;;;73.03;23.97;;;3.00;97.30;;;;;;4916380;29;20207;-70
2020/12/11 09:46:46;;;;;;;64.77;24.67;;;3.00;97.30;;;;;;4917786;29;20480;-69
2020/12/11 09:49:14;;;;;;;68.37;21.23;;;3.00;97.30;;;;;;4916245;29;20184;-69
2020/12/11 09:52:00;;;;;;;68.90;23.40;;;3.10;97.30;;;;;;4916224;29;20499;-69
2020/12/11 09:54:29;;;;;;;72.30;22.83;;;3.20;97.30;;;;;;4917001;29;20424;-69
2020/12/11 09:56:57;;;;;;;77.77;22.97;;;3.20;97.30;;;;;;4916199;29;20452;-69
2020/12/11 09:59:35;;;;;;;77.87;24.93;;;3.20;97.30;;;;;;4917447;29;20455;-69
2020/12/11 10:02:11;;;;;;;67.30;22.10;;;3.30;97.30;;;;;;4915892;29;20990;-70
2020/12/11 10:04:36;;;;;;;77.73;22.83;;;3.30;97.30;;;;;;4917008;29;20427;-69
2020/12/11 10:07:02;;;;;;;66.73;22.27;;;3.30;97.30;;;;;;4915943;29;20835;-69
2020/12/11 10:09:28;;;;;;;73.97;24.33;;;3.30;97.30;;;;;;4915889;29;20220;-69
2020/12/11 10:11:54;;;;;;;70.27;21.90;;;3.40;97.30;;;;;;4915864;29;20207;-69
2020/12/11 10:14:30;;;;;;;70.13;23.80;;;3.40;97.30;;;;;;4917003;29;20173;-69
2020/12/11 10:16:56;;;;;;;74.60;23.70;;;3.50;97.30;;;;;;4915947;29;20942;-69
2020/12/11 10:19:22;;;;;;;70.73;23.97;;;3.50;97.30;;;;;;4916941;29;20501;-69
2020/12/11 10:21:53;;;;;;;73.50;24.37;;;3.50;97.30;;;;;;4916962;29;20196;-69
2020/12/11 10:24:19;;;;;;;77.17;27.13;;;3.60;97.30;;;;;;4916888;29;20914;-69
2020/12/11 10:26:45;;;;;;;63.47;23.93;;;3.60;97.30;;;;;;4915703;29;20449;-69
2020/12/11 10:29:11;;;;;;;82.43;25.00;;;3.70;97.30;;;;;;4916915;29;20779;-72
2020/12/11 10:31:41;;;;;;;78.40;26.80;;;3.70;97.30;;;;;;4916899;29;20461;-69
2020/12/11 10:34:09;;;;;;;71.40;24.20;;;3.80;97.30;;;;;;4915377;29;20424;-69
2020/12/11 10:36:34;;;;;;;84.10;26.17;;;3.80;97.30;;;;;;4916932;29;20420;-69
2020/12/11 10:39:00;;;;;;;63.83;23.87;;;3.80;97.30;;;;;;4916740;29;20765;-70
2020/12/11 10:41:26;;;;;;;86.47;24.90;;;3.90;97.30;;;;;;4915573;29;20291;-69
2020/12/11 10:43:53;;;;;;;72.87;23.80;;;3.90;97.30;;;;;;4915320;29;20432;-69
2020/12/11 10:46:19;;;;;;;70.47;24.80;;;3.90;97.30;;;;;;4916664;29;20453;-69
2020/12/11 10:48:45;;;;;;;71.87;23.53;;;4.00;97.30;;;;;;4917478;29;20484;-69
2020/12/11 10:51:15;;;;;;;71.27;23.17;;;4.00;97.30;;;;;;4919850;29;20460;-69
2020/12/11 10:53:42;;;;;;;69.03;24.00;;;4.10;97.30;;;;;;4919270;29;20652;-69
2020/12/11 10:56:08;;;;;;;66.57;22.67;;;4.10;97.30;;;;;;4919478;29;21063;-69
2020/12/11 10:58:35;;;;;;;67.87;22.73;;;4.10;97.30;;;;;;4919357;29;20431;-69
2020/12/11 11:01:08;;;;;;;80.50;24.10;;;4.20;97.30;;;;;;4918994;29;20456;-69
2020/12/11 11:03:34;;;;;;;60.13;21.27;;;4.20;97.30;;;;;;4919109;29;20906;-69
2020/12/11 11:06:08;;;;;;;64.23;22.93;;;4.20;97.30;;;;;;4920413;29;20449;-69
2020/12/11 11:08:52;;;;;;;75.97;22.57;;;4.30;97.30;;;;;;4919157;29;20494;-69
2020/12/11 11:11:23;;;;;;;66.40;23.80;;;4.30;97.30;;;;;;4919124;29;20444;-69
2020/12/11 11:14:40;;;;;;;71.27;21.97;;;4.30;97.30;;;;;;4918841;29;20416;-69
2020/12/11 11:22:26;;;;;;;67.87;24.40;;;4.50;97.30;;;;;;4917819;29;20439;-70
2020/12/11 11:27:49;;;;;;;73.70;22.97;;;4.60;97.30;;;;;;4920222;29;20476;-70
2020/12/11 11:30:18;;;;;;;75.20;23.53;;;4.60;97.30;;;;;;4918787;29;20502;-70
2020/12/11 11:32:44;;;;;;;65.97;22.60;;;4.60;97.30;;;;;;4918587;29;20512;-69
2020/12/11 11:35:10;;;;;;;62.27;22.07;;;4.60;97.30;;;;;;4919498;29;20500;-69
2020/12/11 11:37:35;;;;;;;65.57;22.73;;;4.60;97.30;;;;;;4918597;29;21000;-69
2020/12/11 11:40:01;;;;;;;69.80;22.40;;;4.60;97.30;;;;;;4917533;29;20555;-69
2020/12/11 11:42:27;;;;;;;60.77;22.53;;;4.60;97.30;;;;;;4929362;29;20208;-69
2020/12/11 11:44:57;;;;;;;54.97;19.40;;;4.70;97.30;;;;;;4926289;29;20934;-70
2020/12/11 11:47:24;;;;;;;69.40;21.70;;;4.70;97.30;;;;;;4931746;29;20619;-69
2020/12/11 11:54:44;;;;;;;68.40;24.83;;;4.70;97.30;;;;;;4927147;29;20420;-69
2020/12/11 11:57:09;;;;;;;52.77;21.53;;;4.60;97.30;;;;;;4928038;29;20881;-69
2020/12/11 11:59:35;;;;;;;66.73;22.90;;;4.60;97.30;;;;;;4920936;29;20267;-69
2020/12/11 12:02:01;;;;;;;60.63;21.13;;;4.70;97.30;;;;;;4918809;29;20689;-71
2020/12/11 12:04:27;;;;;;;76.00;23.63;;;4.60;97.30;;;;;;4917738;29;20184;-69
2020/12/11 12:06:52;;;;;;;70.37;22.00;;;4.70;97.30;;;;;;4918138;29;20196;-69
2020/12/11 12:09:18;;;;;;;62.83;22.37;;;4.70;97.30;;;;;;4918031;29;20183;-69
2020/12/11 12:11:44;;;;;;;67.43;23.67;;;4.70;97.30;;;;;;4918034;29;20197;-69
2020/12/11 12:14:11;;;;;;;78.37;23.30;;;4.70;97.30;;;;;;4917948;29;20714;-69
2020/12/11 12:16:38;;;;;;;72.60;25.57;;;4.70;97.30;;;;;;4919350;29;20504;-69
2020/12/11 12:19:04;;;;;;;58.97;22.70;;;4.70;97.30;;;;;;4917702;29;20776;-69
2020/12/11 12:29:20;;;;;;;61.00;21.00;;;4.80;97.30;;;;;;4904480;29;20989;-70
2020/12/11 12:31:56;;;;;;;71.00;27.60;;;4.80;97.30;;;;;;4918870;29;20437;-69
2020/12/11 12:44:43;;;;;;;68.93;26.23;;;4.90;97.30;;;;;;4912397;29;20428;-70
2020/12/11 12:47:10;;;;;;;73.20;25.17;;;4.90;97.30;;;;;;4918370;29;20448;-70
2020/12/11 12:49:36;;;;;;;79.47;24.90;;;4.90;97.30;;;;;;4916966;29;20694;-69
2020/12/11 12:52:04;;;;;;;67.27;25.40;;;4.90;97.30;;;;;;4917814;29;20468;-70
2020/12/11 12:54:29;;;;;;;76.97;25.27;;;5.00;97.30;;;;;;4917967;29;20425;-69
2020/12/11 12:56:58;;;;;;;62.40;22.97;;;5.00;97.30;;;;;;4918339;29;20417;-69
2020/12/11 13:04:53;;;;;;;52.23;19.23;;;5.10;97.30;;;;;;4917858;29;20412;-69
2020/12/11 13:07:18;;;;;;;66.97;21.50;;;5.20;97.30;;;;;;4918235;29;20452;-69
2020/12/11 13:09:44;;;;;;;58.47;18.90;;;5.20;97.30;;;;;;4918233;29;20424;-69
2020/12/11 13:12:09;;;;;;;42.93;18.53;;;5.20;97.30;;;;;;4917132;29;20227;-69
2020/12/11 13:14:35;;;;;;;59.07;19.60;;;5.20;97.30;;;;;;4916542;29;20184;-69
2020/12/11 13:17:05;;;;;;;39.80;15.93;;;5.20;97.30;;;;;;4917387;29;20192;-69
2020/12/11 13:19:33;;;;;;;28.23;12.77;;;5.10;97.30;;;;;;4916517;29;20177;-70
2020/12/11 13:22:17;;;;;;;26.80;12.73;;;5.10;97.30;;;;;;4916794;29;20452;-70
2020/12/11 13:27:29;;;;;;;25.20;12.27;;;5.10;97.30;;;;;;4907701;29;20490;-69
2020/12/11 13:29:55;;;;;;;22.13;10.50;;;5.20;97.30;;;;;;4917521;29;20425;-69
2020/12/11 13:32:21;;;;;;;20.17;10.27;;;5.20;97.30;;;;;;4916642;29;20867;-69
2020/12/11 13:34:48;;;;;;;24.27;10.87;;;5.20;97.30;;;;;;4917203;29;20428;-70
2020/12/11 13:37:14;;;;;;;22.33;11.50;;;5.30;97.30;;;;;;4916442;29;20181;-69
2020/12/11 13:39:40;;;;;;;26.77;12.43;;;5.30;97.30;;;;;;4917424;29;20408;-69
2020/12/11 13:42:06;;;;;;;33.47;13.73;;;5.30;97.30;;;;;;4915008;29;20820;-69
2020/12/11 13:44:31;;;;;;;31.47;13.33;;;5.30;97.30;;;;;;4915848;29;20168;-69
2020/12/11 13:46:57;;;;;;;33.40;13.90;;;5.40;97.30;;;;;;4916910;29;20570;-69
2020/12/11 13:49:23;;;;;;;35.93;14.70;;;5.40;97.30;;;;;;4916432;29;20216;-69
2020/12/11 13:51:49;;;;;;;33.93;13.63;;;5.40;97.30;;;;;;4915978;29;20447;-69
2020/12/11 13:54:15;;;;;;;39.27;15.47;;;5.30;97.30;;;;;;4916013;29;20696;-69
2020/12/11 13:56:41;;;;;;;33.07;14.70;;;5.30;97.30;;;;;;4915744;29;20513;-69
2020/12/11 13:59:07;;;;;;;41.60;15.40;;;5.30;97.30;;;;;;4917171;29;20283;-70
2020/12/11 14:01:36;;;;;;;33.60;13.87;;;5.30;97.30;;;;;;4915754;29;20555;-69
2020/12/11 14:04:02;;;;;;;38.70;15.97;;;5.20;97.30;;;;;;4916006;29;20177;-70
2020/12/11 14:06:31;;;;;;;40.27;16.50;;;5.20;97.30;;;;;;4916669;29;20487;-70
2020/12/11 14:09:00;;;;;;;40.27;16.60;;;5.20;97.30;;;;;;4915607;29;20429;-69
2020/12/11 14:11:27;;;;;;;38.40;17.93;;;5.20;97.30;;;;;;4915034;29;20826;-70
2020/12/11 14:13:53;;;;;;;40.43;15.23;;;5.10;97.30;;;;;;4917023;29;20397;-69
2020/12/11 14:16:40;;;;;;;36.57;15.40;;;5.10;97.30;;;;;;4915491;29;20915;-70
2020/12/11 14:24:12;;;;;;;43.60;16.33;;;5.10;97.30;;;;;;4916939;29;20420;-70
2020/12/11 14:26:42;;;;;;;37.73;16.27;;;5.00;97.30;;;;;;4915742;29;20487;-71
2020/12/11 14:29:08;;;;;;;44.87;18.40;;;5.00;97.30;;;;;;4916568;29;20173;-71
2020/12/11 14:31:33;;;;;;;42.80;17.30;;;4.90;97.30;;;;;;4915613;29;20957;-70
2020/12/11 14:33:59;;;;;;;44.97;17.30;;;4.90;97.30;;;;;;4914964;29;20185;-70
2020/12/11 14:36:25;;;;;;;49.67;19.47;;;4.90;97.30;;;;;;4915526;29;20196;-70
2020/12/11 14:41:24;;;;;;;51.53;18.27;;;4.80;97.30;;;;;;4916800;29;20203;-70
2020/12/11 14:43:50;;;;;;;48.33;18.50;;;4.80;97.30;;;;;;4914855;29;20212;-70
2020/12/11 14:46:26;;;;;;;48.90;16.93;;;4.80;97.30;;;;;;4915642;29;20989;-70
2020/12/11 14:48:53;;;;;;;45.43;17.57;;;4.80;97.30;;;;;;4916720;29;20416;-70
2020/12/11 14:51:20;;;;;;;50.33;16.97;;;4.80;97.30;;;;;;4916303;29;20789;-70
2020/12/11 14:53:46;;;;;;;40.30;17.57;;;4.80;97.30;;;;;;4916267;29;20907;-70
2020/12/11 14:56:12;;;;;;;45.50;17.37;;;4.80;97.30;;;;;;4914838;29;20482;-70
2020/12/11 14:58:38;;;;;;;53.80;17.67;;;4.80;97.30;;;;;;4930004;29;20184;-69
2020/12/11 15:01:03;;;;;;;46.93;20.47;;;4.80;97.30;;;;;;4914659;29;20460;-69
2020/12/11 15:03:29;;;;;;;41.40;16.27;;;4.70;97.30;;;;;;4915480;29;20188;-70
2020/12/11 15:05:57;;;;;;;36.00;16.13;;;4.70;97.30;;;;;;4922620;29;20665;-70
2020/12/11 15:08:23;;;;;;;40.67;16.60;;;4.70;97.30;;;;;;4916866;29;20440;-70
2020/12/11 15:10:49;;;;;;;39.97;15.23;;;4.70;97.30;;;;;;4914852;29;20970;-74
2020/12/11 15:13:15;;;;;;;40.00;16.50;;;4.70;97.30;;;;;;4915103;29;20476;-70
2020/12/11 15:15:40;;;;;;;37.87;16.07;;;4.70;97.30;;;;;;4916127;29;20180;-70
2020/12/11 15:18:06;;;;;;;38.03;16.70;;;4.70;97.30;;;;;;4916089;29;20443;-69
2020/12/11 15:20:32;;;;;;;43.33;17.60;;;4.70;97.30;;;;;;4916568;29;20334;-68
2020/12/11 15:22:58;;;;;;;40.70;16.43;;;4.70;97.30;;;;;;4916573;29;20184;-69
2020/12/11 15:25:24;;;;;;;40.80;15.77;;;4.70;97.30;;;;;;4916367;29;20188;-69
2020/12/11 15:27:50;;;;;;;39.40;16.20;;;4.70;97.30;;;;;;4914396;29;20471;-70
2020/12/11 15:30:16;;;;;;;37.30;15.60;;;4.70;97.30;;;;;;4916204;29;20783;-69
2020/12/11 15:32:42;;;;;;;31.17;14.57;;;4.70;97.30;;;;;;4915195;29;20197;-70
2020/12/11 15:35:08;;;;;;;36.90;14.83;;;4.70;97.30;;;;;;4917116;29;20428;-69
2020/12/11 15:37:34;;;;;;;34.17;14.97;;;4.70;97.30;;;;;;4919947;29;20614;-69
2020/12/11 15:39:59;;;;;;;33.20;14.80;;;4.70;97.30;;;;;;4918538;29;20475;-69
2020/12/11 15:42:25;;;;;;;31.47;13.30;;;4.70;97.30;;;;;;4918567;29;20239;-69
2020/12/11 15:44:51;;;;;;;32.60;14.20;;;4.70;97.30;;;;;;4919405;29;20678;-70
2020/12/11 15:47:21;;;;;;;34.60;14.70;;;4.70;97.30;;;;;;4919822;29;20207;-70
2020/12/11 15:49:47;;;;;;;27.03;13.60;;;4.70;97.30;;;;;;4917991;29;20707;-70
2020/12/11 15:52:13;;;;;;;40.53;16.67;;;4.70;97.30;;;;;;4918100;29;20460;-71
2020/12/11 15:54:39;;;;;;;35.10;13.90;;;4.70;97.30;;;;;;4917791;29;20423;-70
2020/12/11 15:57:05;;;;;;;35.03;15.00;;;4.70;97.30;;;;;;4917991;29;20885;-71
2020/12/11 15:59:31;;;;;;;32.90;15.50;;;4.70;97.30;;;;;;4918506;29;20180;-72
2020/12/11 16:01:56;;;;;;;32.97;15.47;;;4.70;97.30;;;;;;4918181;29;20224;-71
2020/12/11 16:04:22;;;;;;;42.13;17.03;;;4.70;97.30;;;;;;4917943;29;20275;-72
2020/12/11 16:06:52;;;;;;;40.10;14.87;;;4.60;97.30;;;;;;4917896;29;20282;-69
2020/12/11 16:09:18;;;;;;;37.67;15.40;;;4.60;97.30;;;;;;4918305;29;20205;-70
2020/12/11 16:11:44;;;;;;;36.63;15.87;;;4.60;97.30;;;;;;4917599;29;20433;-70
2020/12/11 16:14:16;;;;;;;38.13;16.33;;;4.60;97.30;;;;;;4917337;29;20264;-68
2020/12/11 16:16:43;;;;;;;36.13;14.77;;;4.60;97.30;;;;;;4901921;29;20204;-70
2020/12/11 16:19:09;;;;;;;42.57;17.17;;;4.60;97.30;;;;;;4917710;29;20998;-69
2020/12/11 16:21:37;;;;;;;35.93;15.57;;;4.60;97.30;;;;;;4919035;29;20440;-70
2020/12/11 16:24:02;;;;;;;42.10;15.80;;;4.60;97.30;;;;;;4919137;29;20173;-70
2020/12/11 16:26:28;;;;;;;35.50;16.37;;;4.60;97.30;;;;;;4917518;29;20558;-70
2020/12/11 16:28:54;;;;;;;42.10;16.80;;;4.60;97.30;;;;;;4917630;29;20177;-71
2020/12/11 16:31:20;;;;;;;46.17;17.83;;;4.60;97.30;;;;;;4918502;29;20691;-70
2020/12/11 16:33:46;;;;;;;39.77;16.80;;;4.60;97.30;;;;;;4916292;29;20187;-70
2020/12/11 16:36:14;;;;;;;36.53;15.43;;;4.60;97.30;;;;;;4918271;29;20413;-70
2020/12/11 16:38:40;;;;;;;34.53;17.70;;;4.60;97.30;;;;;;4915823;29;20517;-69
2020/12/11 16:41:06;;;;;;;39.07;16.97;;;4.60;97.30;;;;;;4919793;29;20489;-77
2020/12/11 16:43:39;;;;;;;39.33;17.30;;;4.60;97.30;;;;;;4917477;29;20208;-73
2020/12/11 16:46:10;;;;;;;50.00;18.33;;;4.60;97.30;;;;;;4916005;29;20436;-69
2020/12/11 16:48:40;;;;;;;43.57;16.80;;;4.60;97.30;;;;;;4918148;29;20424;-69
2020/12/11 16:51:06;;;;;;;44.53;18.70;;;4.60;97.30;;;;;;4918589;29;20443;-68
2020/12/11 16:53:32;;;;;;;42.77;18.17;;;4.60;97.30;;;;;;4917824;29;20413;-71
2020/12/11 16:55:58;;;;;;;39.70;17.20;;;4.60;97.30;;;;;;4916884;29;20454;-70
2020/12/11 16:58:23;;;;;;;46.77;19.70;;;4.60;97.30;;;;;;4918254;29;20673;-70
2020/12/11 17:00:51;;;;;;;37.20;17.40;;;4.50;97.30;;;;;;4916876;29;20204;-71
2020/12/11 17:08:28;;;;;;;44.30;18.10;;;4.50;97.30;;;;;;4918179;29;20228;-69
2020/12/11 17:10:54;;;;;;;43.77;17.03;;;4.50;97.30;;;;;;4916992;29;20448;-73
2020/12/11 17:13:20;;;;;;;52.10;18.60;;;4.50;97.30;;;;;;4917153;29;20923;-78
2020/12/11 17:15:46;;;;;;;44.23;18.23;;;4.40;97.30;;;;;;4917138;29;20192;-76
2020/12/11 17:18:12;;;;;;;49.13;20.37;;;4.40;97.30;;;;;;4918800;29;20181;-75
2020/12/11 17:20:38;;;;;;;80.67;28.93;;;4.40;97.30;;;;;;4917850;29;20568;-80
2020/12/11 17:23:06;;;;;;;87.17;33.27;;;4.30;97.30;;;;;;4919944;29;20191;-77
2020/12/11 17:25:32;;;;;;;91.20;33.90;;;4.30;97.30;;;;;;4912507;29;20243;-69
2020/12/11 17:27:58;;;;;;;67.83;23.40;;;4.30;97.30;;;;;;4902827;29;20560;-69
2020/12/11 17:30:30;;;;;;;62.63;25.03;;;4.20;97.30;;;;;;4917197;29;20187;-69
2020/12/11 17:33:06;;;;;;;51.47;22.07;;;4.20;97.30;;;;;;4918083;29;20167;-69
2020/12/11 17:35:31;;;;;;;48.10;19.23;;;4.20;97.30;;;;;;4924177;29;20424;-69
2020/12/11 17:37:57;;;;;;;45.80;19.47;;;4.10;97.30;;;;;;4916584;29;20802;-69
2020/12/11 17:40:23;;;;;;;49.33;21.60;;;4.10;97.30;;;;;;4914474;29;20184;-70
2020/12/11 17:42:49;;;;;;;54.73;21.87;;;4.10;97.30;;;;;;4916579;29;20180;-69
2020/12/11 17:45:14;;;;;;;46.57;21.00;;;4.00;97.30;;;;;;4916768;29;20185;-71
2020/12/11 17:47:40;;;;;;;54.57;21.40;;;4.00;97.30;;;;;;4917837;29;20460;-68
2020/12/11 17:50:05;;;;;;;54.57;20.10;;;4.00;97.30;;;;;;4918041;29;20219;-69
2020/12/11 17:52:53;;;;;;;61.13;22.17;;;3.90;97.30;;;;;;4933303;29;20666;-72
2020/12/11 17:55:23;;;;;;;57.67;21.70;;;3.90;97.30;;;;;;4917200;29;20595;-71
2020/12/11 17:57:49;;;;;;;51.83;19.93;;;3.80;97.30;;;;;;4916692;29;20437;-71
2020/12/11 18:00:16;;;;;;;54.13;20.07;;;3.80;97.30;;;;;;4914398;29;20420;-69
2020/12/11 18:02:42;;;;;;;55.97;21.20;;;3.80;97.30;;;;;;4916105;29;20440;-71
2020/12/11 18:05:12;;;;;;;51.77;20.80;;;3.70;97.30;;;;;;4915288;29;20431;-71
2020/12/11 18:07:38;;;;;;;56.80;22.13;;;3.70;97.30;;;;;;4914280;29;20956;-71
2020/12/11 18:10:05;;;;;;;50.20;22.03;;;3.60;97.30;;;;;;4915516;29;20507;-71
2020/12/11 18:12:32;;;;;;;46.73;18.63;;;3.60;97.30;;;;;;4915626;29;20456;-71
2020/12/11 18:14:58;;;;;;;55.17;21.23;;;3.60;97.30;;;;;;4916545;29;20428;-69
2020/12/11 18:17:28;;;;;;;53.27;21.50;;;3.50;97.30;;;;;;4915704;29;20426;-70
2020/12/11 18:19:58;;;;;;;51.90;21.47;;;3.50;97.30;;;;;;4915076;29;20204;-70
2020/12/11 18:22:26;;;;;;;58.23;21.63;;;3.50;97.30;;;;;;4915698;29;20457;-69
2020/12/11 18:24:52;;;;;;;50.73;19.57;;;3.40;97.30;;;;;;4915999;29;20425;-69
2020/12/11 18:27:18;;;;;;;55.33;20.97;;;3.40;97.30;;;;;;4916536;29;20551;-68
2020/12/11 18:29:47;;;;;;;53.53;21.10;;;3.40;97.30;;;;;;4916232;29;20999;-69
2020/12/11 18:32:26;;;;;;;53.10;20.23;;;3.40;97.30;;;;;;4914123;29;20347;-69
2020/12/11 18:34:51;;;;;;;56.40;21.43;;;3.40;97.30;;;;;;4915173;29;20444;-69
2020/12/11 18:37:17;;;;;;;57.47;22.10;;;3.30;97.30;;;;;;4915226;29;20646;-69
2020/12/11 18:39:43;;;;;;;59.13;21.30;;;3.30;97.30;;;;;;4916775;29;20180;-69
2020/12/11 18:42:10;;;;;;;58.73;21.50;;;3.20;97.30;;;;;;4916716;29;20444;-69
2020/12/11 18:44:36;;;;;;;59.43;22.80;;;3.20;97.30;;;;;;4916062;29;20428;-69
2020/12/11 18:47:02;;;;;;;60.43;22.13;;;3.20;97.30;;;;;;4915037;29;20515;-69
2020/12/11 18:49:27;;;;;;;59.57;21.10;;;3.20;97.30;;;;;;4916254;29;20230;-69
2020/12/11 18:51:53;;;;;;;46.67;19.77;;;3.20;97.30;;;;;;4914955;29;20943;-69
2020/12/11 18:54:22;;;;;;;53.80;22.43;;;3.10;97.30;;;;;;4914975;29;20240;-69
2020/12/11 18:56:53;;;;;;;52.23;21.60;;;3.10;97.30;;;;;;4916505;29;20195;-68
2020/12/11 18:59:19;;;;;;;61.53;23.07;;;3.10;97.30;;;;;;4916586;29;20417;-68
2020/12/11 19:01:45;;;;;;;62.33;25.90;;;3.10;97.30;;;;;;4916493;29;20472;-69
2020/12/11 19:04:10;;;;;;;64.37;23.90;;;3.10;97.30;;;;;;4915990;29;20181;-69
2020/12/11 19:06:36;;;;;;;60.10;23.03;;;3.10;97.30;;;;;;4915038;29;20214;-70
2020/12/11 19:09:02;;;;;;;58.30;21.37;;;3.10;97.30;;;;;;4916915;29;20260;-69
2020/12/11 19:11:28;;;;;;;56.60;21.77;;;3.00;97.30;;;;;;4919993;29;20255;-69
2020/12/11 19:13:54;;;;;;;51.33;20.30;;;3.00;97.30;;;;;;4919473;29;20464;-69
2020/12/11 19:16:20;;;;;;;52.33;21.60;;;3.00;97.30;;;;;;4919151;29;20191;-69
2020/12/11 19:18:46;;;;;;;54.40;21.83;;;3.00;97.30;;;;;;4920464;29;20428;-69
2020/12/11 19:21:16;;;;;;;48.87;18.50;;;3.00;97.30;;;;;;4918970;29;20201;-69
2020/12/11 19:23:42;;;;;;;49.67;20.43;;;3.00;97.30;;;;;;4920333;29;20420;-69
2020/12/11 19:26:10;;;;;;;41.90;18.67;;;2.90;97.30;;;;;;4919165;29;20930;-69
2020/12/11 19:28:36;;;;;;;43.53;17.87;;;2.90;97.30;;;;;;4919398;29;20188;-69
2020/12/11 19:31:04;;;;;;;45.23;19.60;;;2.90;97.30;;;;;;4918568;29;20444;-68
2020/12/11 19:33:29;;;;;;;45.23;18.33;;;2.80;97.30;;;;;;4918303;29;20181;-69
2020/12/11 19:35:55;;;;;;;49.37;20.00;;;2.80;97.30;;;;;;4919844;29;20925;-69
2020/12/11 19:38:21;;;;;;;47.63;21.20;;;2.90;97.30;;;;;;4918063;29;20185;-71
2020/12/11 19:40:47;;;;;;;41.97;17.47;;;2.80;97.30;;;;;;4919505;29;20272;-68